Time;durP1;ratioP1;P1;durP2;ratioP2;P2;SDS_P1;SDS_P2;PMS_P1;PMS_P2;Temp;Humidity;BMP_temperature;BMP_pressure;BME280_temperature;BME280_humidity;BME280_pressure;Samples;Min_cycle;Max_cycle;Signal;HPM_P1;HPM_P2
2023/10/26 05:52:53;;;;;;;1.05;0.88;;;17.50;46.90;;;;;;6186218;23;20202;-86
2023/10/26 05:56:08;;;;;;;1.20;1.00;;;17.50;46.60;;;;;;6060110;23;20185;-86
2023/10/26 05:59:55;;;;;;;1.95;0.80;;;17.60;46.60;;;;;;6007215;23;20158;-87
2023/10/26 06:02:37;;;;;;;;;;;;;;;;;;;;;
2023/10/26 06:05:52;;;;;;;1.50;0.90;;;17.60;46.40;;;;;;5829218;24;20182;-86
2023/10/26 06:08:22;;;;;;;0.90;0.80;;;17.70;46.30;;;;;;5791518;24;20187;-87
2023/10/26 07:03:42;;;;;;;2.38;0.60;;;17.80;45.10;;;;;;6037164;23;20205;-87
2023/10/26 10:10:10;;;;;;;0.77;0.65;;;18.20;45.70;;;;;;6161671;23;20237;-85
2023/10/26 10:12:47;;;;;;;0.80;0.60;;;18.20;45.60;;;;;;6134678;23;20251;-87
2023/10/26 10:15:17;;;;;;;1.40;0.50;;;18.20;45.60;;;;;;6074824;23;20192;-87
2023/10/26 10:18:01;;;;;;;1.10;0.60;;;18.20;45.60;;;;;;6040366;23;20155;-87
2023/10/26 10:20:33;;;;;;;0.45;0.45;;;18.20;45.50;;;;;;6021039;23;20170;-86
2023/10/26 10:23:20;;;;;;;0.75;0.55;;;18.20;45.50;;;;;;5969281;24;20155;-86
2023/10/26 10:25:59;;;;;;;0.82;0.60;;;18.20;45.70;;;;;;5908885;24;20199;-86
2023/10/26 10:28:50;;;;;;;0.68;0.43;;;18.30;45.80;;;;;;5857159;24;20169;-85
2023/10/26 10:32:11;;;;;;;0.80;0.60;;;18.20;45.60;;;;;;5814593;24;20165;-87
2023/10/26 10:34:49;;;;;;;0.65;0.60;;;18.20;45.60;;;;;;5779607;24;20247;-87
2023/10/26 10:37:29;;;;;;;1.00;0.63;;;18.10;45.80;;;;;;5822397;24;20160;-86
2023/10/26 10:40:20;;;;;;;0.50;0.50;;;18.20;45.80;;;;;;5779962;24;20159;-87
2023/10/26 10:42:57;;;;;;;0.50;0.50;;;18.20;45.90;;;;;;5824751;24;20167;-86
2023/10/26 10:45:23;;;;;;;0.82;0.60;;;18.20;45.90;;;;;;5799036;24;20156;-87
2023/10/26 10:47:50;;;;;;;0.73;0.57;;;18.10;46.00;;;;;;5796340;24;20171;-87
2023/10/26 10:50:26;;;;;;;0.65;0.60;;;18.20;45.90;;;;;;5795075;24;20169;-85
2023/10/26 10:52:59;;;;;;;1.52;0.57;;;18.20;46.00;;;;;;5828913;24;20168;-85
2023/10/26 10:56:04;;;;;;;0.40;0.40;;;18.20;46.00;;;;;;5858990;24;20182;-86
2023/10/26 10:59:11;;;;;;;2.70;0.57;;;18.20;46.00;;;;;;5888551;24;20217;-87
2023/10/26 11:01:46;;;;;;;0.50;0.50;;;18.10;46.10;;;;;;5934818;24;20156;-86
2023/10/26 11:29:26;;;;;;;1.55;0.60;;;18.30;46.60;;;;;;6018181;23;20295;-85
2023/10/26 11:32:01;;;;;;;0.63;0.63;;;18.30;46.60;;;;;;5944316;24;20187;-84
2023/10/26 11:34:44;;;;;;;0.50;0.40;;;18.20;46.50;;;;;;5943959;24;20195;-84
2023/10/26 11:37:35;;;;;;;0.80;0.45;;;18.20;46.70;;;;;;5970106;24;20155;-85
2023/10/26 11:40:04;;;;;;;0.52;0.50;;;18.30;46.90;;;;;;5992229;24;20155;-82
2023/10/26 11:43:10;;;;;;;0.82;0.40;;;18.30;46.80;;;;;;6017878;23;20140;-83
2023/10/26 13:29:31;;;;;;;7.25;0.88;;;18.40;48.90;;;;;;6163546;23;20249;-86
2023/10/26 13:32:11;;;;;;;;;;;;;;;;;;;;;
2023/10/26 13:35:01;;;;;;;4.47;0.90;;;18.40;49.10;;;;;;5970496;24;20646;-88
2023/10/26 13:38:14;;;;;;;3.42;1.02;;;18.40;49.00;;;;;;5971927;24;20155;-84
2023/10/26 13:41:03;;;;;;;;;;;;;;;;;;;;;
2023/10/26 13:51:20;;;;;;;;;;;;;;;;;;;;;
2023/10/26 13:57:58;;;;;;;;;;;;;;;;;;;;;
2023/10/26 14:07:58;;;;;;;1.45;0.65;;;18.40;48.90;;;;;;5672595;25;20219;-86
2023/10/26 14:10:30;;;;;;;6.60;0.80;;;18.50;49.10;;;;;;5811454;24;20162;-87
2023/10/26 14:17:47;;;;;;;;;;;;;;;;;;;;;
2023/10/26 14:21:07;;;;;;;3.78;0.90;;;18.50;49.00;;;;;;5783422;24;20187;-87
2023/10/26 14:24:36;;;;;;;4.70;0.70;;;18.50;49.00;;;;;;5803743;24;20164;-86
2023/10/26 14:27:35;;;;;;;7.78;1.08;;;18.40;48.90;;;;;;5812845;24;20167;-89
2023/10/26 14:30:12;;;;;;;1.80;0.60;;;18.50;49.00;;;;;;5810901;24;20203;-87
2023/10/26 14:32:52;;;;;;;2.88;0.55;;;18.40;48.80;;;;;;5824160;24;20197;-85
2023/10/26 14:36:06;;;;;;;4.22;1.00;;;18.50;48.90;;;;;;5777911;24;20199;-87
2023/10/26 14:38:48;;;;;;;;;;;;;;;;;;;;;
2023/10/26 14:42:03;;;;;;;3.40;0.60;;;18.40;49.00;;;;;;5754666;24;20188;-87
2023/10/26 14:44:17;;;;;;;3.50;0.75;;;18.40;49.00;;;;;;5780711;24;20165;-85
2023/10/26 14:47:42;;;;;;;5.68;1.05;;;18.40;48.90;;;;;;5794931;24;20190;-88
2023/10/26 14:53:34;;;;;;;4.80;1.02;;;18.40;49.10;;;;;;5781521;24;20167;-87
2023/10/26 14:56:24;;;;;;;3.33;0.80;;;18.40;49.10;;;;;;5820522;24;20253;-87
2023/10/26 15:02:16;;;;;;;1.85;0.80;;;18.40;49.00;;;;;;5888506;24;20166;-89
2023/10/26 15:05:16;;;;;;;3.80;0.80;;;18.40;49.00;;;;;;5876791;24;20166;-86
2023/10/26 15:07:43;;;;;;;2.45;0.80;;;18.40;49.10;;;;;;5852995;24;20164;-85
2023/10/26 15:10:11;;;;;;;3.22;0.82;;;18.40;49.10;;;;;;5852682;24;20329;-87
2023/10/26 15:12:40;;;;;;;1.77;0.75;;;18.40;48.90;;;;;;5853209;24;20167;-86
2023/10/26 15:15:10;;;;;;;2.25;0.70;;;18.50;49.00;;;;;;5829254;24;20215;-87
2023/10/26 15:17:37;;;;;;;3.05;0.80;;;18.50;49.00;;;;;;5850578;24;20155;-86
2023/10/26 15:20:03;;;;;;;1.40;0.70;;;18.50;48.90;;;;;;5850969;24;20171;-86
2023/10/26 15:22:31;;;;;;;5.30;1.02;;;18.50;48.90;;;;;;5850794;24;20211;-88
2023/10/26 15:25:21;;;;;;;3.28;0.80;;;18.50;48.70;;;;;;5830553;24;20159;-88
2023/10/26 15:27:52;;;;;;;5.15;0.80;;;18.50;48.60;;;;;;5806007;24;20174;-89
2023/10/26 15:30:26;;;;;;;2.13;0.88;;;18.60;48.60;;;;;;5849277;24;20167;-87
2023/10/26 15:33:26;;;;;;;3.05;0.90;;;18.60;48.80;;;;;;5813169;24;20226;-87
2023/10/26 15:36:04;;;;;;;4.68;0.90;;;18.60;48.90;;;;;;5803427;24;20192;-87
2023/10/26 15:38:36;;;;;;;2.25;0.80;;;18.60;49.00;;;;;;5792910;24;20165;-88
2023/10/26 18:30:22;;;;;;;5.30;1.20;;;18.60;48.30;;;;;;6214414;23;20224;-86
2023/10/26 18:32:51;;;;;;;1.65;1.00;;;18.60;48.30;;;;;;6219680;23;20189;-87
2023/10/26 18:35:26;;;;;;;2.25;1.00;;;18.60;48.20;;;;;;6171995;23;20165;-86
2023/10/26 18:37:58;;;;;;;1.35;0.93;;;18.60;48.00;;;;;;6104140;23;20155;-86
2023/10/26 18:40:36;;;;;;;1.77;0.95;;;18.60;47.80;;;;;;6082835;23;20248;-85
2023/10/26 18:43:04;;;;;;;2.45;1.05;;;18.60;48.00;;;;;;6062271;23;20163;-85
2023/10/26 18:45:40;;;;;;;2.33;1.15;;;18.60;47.80;;;;;;6085872;23;20179;-86
2023/10/26 18:48:06;;;;;;;3.80;1.08;;;18.60;47.70;;;;;;6040116;23;20498;-86
2023/10/26 18:50:33;;;;;;;2.42;1.00;;;18.60;47.60;;;;;;6086073;23;20227;-85
2023/10/26 18:53:03;;;;;;;1.40;0.88;;;18.60;47.60;;;;;;6037696;23;20152;-85
2023/10/26 18:55:33;;;;;;;2.35;1.05;;;18.60;47.80;;;;;;6062313;23;20202;-86
2023/10/26 18:57:59;;;;;;;1.17;1.00;;;18.60;47.60;;;;;;6000888;23;20188;-86
2023/10/26 19:00:28;;;;;;;2.15;1.20;;;18.60;47.60;;;;;;6000411;23;20158;-85
2023/10/26 19:02:54;;;;;;;1.92;1.20;;;18.60;47.70;;;;;;6045396;23;20180;-85
2023/10/26 19:05:36;;;;;;;1.98;1.00;;;18.60;47.60;;;;;;6110030;23;20168;-86
2023/10/26 19:08:04;;;;;;;1.23;0.90;;;18.60;47.50;;;;;;6108173;23;20184;-86
2023/10/26 19:10:39;;;;;;;1.50;1.10;;;18.60;47.60;;;;;;6107962;23;20177;-85
2023/10/26 19:13:06;;;;;;;2.17;1.08;;;18.60;47.70;;;;;;6102767;23;20604;-85
2023/10/26 19:15:32;;;;;;;1.63;1.10;;;18.50;47.50;;;;;;6078562;23;20184;-85
2023/10/26 19:17:59;;;;;;;1.65;1.00;;;18.60;47.60;;;;;;6054217;23;20164;-85
2023/10/26 19:20:26;;;;;;;0.93;0.90;;;18.60;47.50;;;;;;6073758;23;20282;-86
2023/10/26 19:22:54;;;;;;;1.48;0.82;;;18.60;47.60;;;;;;6048602;23;20596;-86
2023/10/26 19:25:21;;;;;;;1.20;1.10;;;18.60;47.60;;;;;;6048761;23;20504;-86
2023/10/26 19:27:51;;;;;;;1.10;1.00;;;18.50;47.30;;;;;;6073076;23;20224;-85
2023/10/26 19:30:18;;;;;;;1.67;0.95;;;18.60;47.40;;;;;;6074539;23;20192;-86
2023/10/26 19:32:45;;;;;;;1.92;1.00;;;18.60;47.30;;;;;;6049887;23;20191;-84
2023/10/26 19:35:13;;;;;;;1.88;1.05;;;18.60;47.30;;;;;;6097819;23;20175;-84
2023/10/26 19:37:39;;;;;;;3.20;1.02;;;18.60;47.20;;;;;;6132276;23;20188;-86
2023/10/26 19:40:07;;;;;;;2.75;1.10;;;18.60;47.20;;;;;;6133037;23;20151;-86
2023/10/26 19:42:39;;;;;;;1.40;0.98;;;18.50;47.00;;;;;;6110888;23;20143;-86
2023/10/26 19:45:08;;;;;;;1.77;1.02;;;18.60;47.10;;;;;;6190282;23;20161;-87
2023/10/26 19:47:39;;;;;;;1.65;1.10;;;18.60;47.00;;;;;;6168345;23;20142;-86
2023/10/26 19:50:08;;;;;;;1.85;0.93;;;18.60;46.90;;;;;;6144624;23;20169;-85
2023/10/26 19:52:40;;;;;;;1.52;1.00;;;18.60;46.90;;;;;;6144611;23;20146;-86
2023/10/26 19:55:08;;;;;;;1.83;0.90;;;18.60;47.00;;;;;;6119286;23;20562;-86
2023/10/26 19:57:36;;;;;;;1.40;1.10;;;18.60;46.90;;;;;;6169116;23;20166;-86
2023/10/26 20:00:08;;;;;;;1.48;1.20;;;18.50;46.70;;;;;;6144243;23;20528;-87
2023/10/26 20:02:37;;;;;;;1.10;0.80;;;18.60;46.80;;;;;;6145203;23;20150;-85
2023/10/26 20:05:04;;;;;;;2.15;1.10;;;18.60;46.90;;;;;;6117229;23;20204;-85
2023/10/26 20:07:31;;;;;;;1.20;1.10;;;18.50;47.20;;;;;;6142227;23;20149;-86
2023/10/26 20:09:57;;;;;;;1.45;1.00;;;18.40;47.40;;;;;;6192465;23;20127;-87
2023/10/26 20:12:23;;;;;;;1.70;1.20;;;18.40;47.70;;;;;;6192297;23;20146;-86
2023/10/26 20:14:51;;;;;;;2.45;1.15;;;18.40;47.80;;;;;;6143541;23;20484;-87
2023/10/26 20:17:16;;;;;;;2.17;1.00;;;18.30;47.80;;;;;;6167297;23;20134;-86
2023/10/26 20:19:44;;;;;;;1.83;1.20;;;18.30;47.90;;;;;;6142560;23;20172;-86
2023/10/26 20:22:10;;;;;;;1.88;1.33;;;18.30;47.80;;;;;;6166692;23;20134;-85
2023/10/26 20:24:37;;;;;;;1.40;1.10;;;18.30;47.80;;;;;;6143206;23;20146;-84
2023/10/26 20:27:09;;;;;;;3.38;1.40;;;18.30;47.90;;;;;;6143102;23;20204;-85
2023/10/26 20:29:42;;;;;;;1.40;1.13;;;18.30;48.10;;;;;;6117161;23;20202;-85
2023/10/26 20:32:08;;;;;;;2.42;1.10;;;18.30;48.00;;;;;;6166693;23;20193;-85
2023/10/26 20:34:36;;;;;;;1.38;1.10;;;18.30;47.90;;;;;;6192254;23;20130;-85
2023/10/26 20:37:02;;;;;;;1.10;1.00;;;18.30;47.90;;;;;;6142902;23;20352;-86
2023/10/26 20:39:27;;;;;;;1.08;0.95;;;18.30;47.80;;;;;;6191440;23;20142;-86
2023/10/26 20:41:54;;;;;;;1.48;1.23;;;18.30;48.00;;;;;;6142262;23;20478;-86
2023/10/26 20:44:24;;;;;;;1.20;1.10;;;18.20;48.10;;;;;;6167910;23;20166;-86
2023/10/26 20:46:50;;;;;;;2.20;1.15;;;18.20;48.10;;;;;;6141985;23;20154;-85
2023/10/26 20:49:19;;;;;;;3.33;1.25;;;18.20;47.90;;;;;;6167015;23;20142;-86
2023/10/26 20:51:46;;;;;;;2.60;1.13;;;18.30;47.80;;;;;;6168388;23;20130;-87
2023/10/26 20:54:12;;;;;;;2.33;0.98;;;18.30;47.60;;;;;;6166959;23;20731;-87
2023/10/26 20:56:44;;;;;;;1.25;1.10;;;18.30;47.70;;;;;;6143162;23;20197;-86
2023/10/26 20:59:11;;;;;;;1.10;1.00;;;18.20;47.70;;;;;;6117237;23;20168;-87
2023/10/26 21:01:39;;;;;;;1.48;1.27;;;18.20;47.80;;;;;;6143218;23;20146;-86
2023/10/26 21:04:07;;;;;;;2.55;1.20;;;18.20;48.00;;;;;;6117685;23;20153;-86
2023/10/26 21:06:34;;;;;;;1.67;1.25;;;18.20;47.90;;;;;;6192336;23;20161;-87
2023/10/26 21:09:00;;;;;;;1.30;1.20;;;18.10;47.90;;;;;;6143540;23;20153;-87
2023/10/26 21:11:28;;;;;;;1.48;1.20;;;18.10;47.90;;;;;;6168817;23;20134;-86
2023/10/26 21:13:56;;;;;;;2.90;1.23;;;18.10;48.10;;;;;;6143448;23;20213;-85
2023/10/26 21:16:22;;;;;;;1.20;1.10;;;18.10;48.10;;;;;;6142080;23;20190;-85
2023/10/26 21:18:49;;;;;;;1.30;1.20;;;18.10;48.10;;;;;;6193194;23;20141;-87
2023/10/26 21:21:16;;;;;;;2.75;1.30;;;18.10;48.20;;;;;;6167604;23;20138;-87
2023/10/26 21:23:44;;;;;;;1.27;1.20;;;18.10;48.20;;;;;;6143758;23;20150;-87
2023/10/26 21:26:10;;;;;;;1.75;1.10;;;18.10;48.20;;;;;;6168967;23;20150;-87
2023/10/26 21:28:38;;;;;;;2.03;1.05;;;18.10;48.30;;;;;;6168401;23;20563;-87
2023/10/26 21:31:04;;;;;;;1.70;1.08;;;18.10;48.30;;;;;;6168918;23;20158;-86
2023/10/26 21:33:32;;;;;;;3.13;1.00;;;18.00;48.30;;;;;;6144160;23;20146;-88
2023/10/26 21:35:59;;;;;;;1.95;1.30;;;18.10;48.30;;;;;;6167763;23;20239;-87
2023/10/26 21:38:25;;;;;;;1.27;1.15;;;18.10;48.30;;;;;;6143436;23;20234;-86
2023/10/26 21:40:51;;;;;;;1.23;1.05;;;18.10;48.30;;;;;;6142655;23;20249;-88
2023/10/26 21:43:18;;;;;;;1.50;1.38;;;18.00;48.40;;;;;;6142759;23;20156;-87
2023/10/26 21:45:45;;;;;;;1.77;1.15;;;18.10;48.40;;;;;;6167728;23;20196;-86
2023/10/26 21:48:12;;;;;;;1.45;1.10;;;18.00;48.40;;;;;;6166142;23;20169;-86
2023/10/26 21:50:38;;;;;;;1.92;1.30;;;18.10;48.40;;;;;;6142112;23;20173;-85
2023/10/26 21:53:05;;;;;;;1.63;1.08;;;18.00;48.30;;;;;;6141704;23;20574;-88
2023/10/26 21:55:34;;;;;;;1.55;1.40;;;18.00;48.30;;;;;;6141814;23;20188;-87
2023/10/26 21:58:00;;;;;;;1.90;1.40;;;18.00;48.40;;;;;;6116906;23;20158;-86
2023/10/26 22:00:28;;;;;;;1.45;1.20;;;18.10;49.20;;;;;;6166503;23;20559;-86
2023/10/26 22:02:55;;;;;;;1.60;1.25;;;18.00;48.50;;;;;;6167482;23;20452;-87
2023/10/26 22:05:21;;;;;;;1.20;1.10;;;17.90;48.40;;;;;;6093014;23;20154;-85
2023/10/26 22:07:47;;;;;;;2.25;1.40;;;18.00;49.20;;;;;;6166878;23;20134;-87
2023/10/26 22:10:13;;;;;;;1.52;1.42;;;18.00;48.50;;;;;;6166400;23;20215;-86
2023/10/26 22:12:42;;;;;;;1.67;1.30;;;17.90;48.50;;;;;;6166724;23;20146;-87
2023/10/26 22:15:12;;;;;;;1.60;1.20;;;17.90;48.50;;;;;;6143198;23;20174;-87
2023/10/26 22:17:39;;;;;;;1.30;1.20;;;17.90;48.60;;;;;;6167091;23;20152;-86
2023/10/26 22:20:08;;;;;;;1.20;1.10;;;18.00;48.50;;;;;;6192538;23;20126;-88
2023/10/26 22:22:36;;;;;;;1.55;1.35;;;17.90;48.50;;;;;;6166724;23;20142;-87
2023/10/26 22:25:02;;;;;;;1.30;1.20;;;18.00;48.60;;;;;;6166457;23;20137;-87
2023/10/26 22:27:31;;;;;;;1.08;1.00;;;17.90;48.60;;;;;;6166886;23;20134;-86
2023/10/26 22:29:57;;;;;;;1.65;1.40;;;17.90;48.60;;;;;;6092296;23;20637;-85
2023/10/26 22:32:23;;;;;;;1.10;1.02;;;17.90;48.60;;;;;;6167206;23;20150;-87
2023/10/26 22:34:53;;;;;;;1.45;1.20;;;18.00;48.70;;;;;;6130291;23;20230;-85
2023/10/26 22:37:25;;;;;;;1.38;1.27;;;17.80;48.60;;;;;;6082352;23;20291;-86
2023/10/26 22:39:53;;;;;;;1.83;1.30;;;17.90;48.70;;;;;;6082218;23;20195;-86
2023/10/26 22:42:20;;;;;;;1.83;1.30;;;17.80;48.60;;;;;;6106765;23;20272;-86
2023/10/26 22:44:50;;;;;;;1.60;1.50;;;17.80;48.70;;;;;;6081948;23;20226;-88
2023/10/26 22:47:18;;;;;;;1.50;1.30;;;17.90;48.70;;;;;;6081836;23;20151;-86
2023/10/26 22:49:46;;;;;;;1.40;1.23;;;17.90;48.70;;;;;;6106699;23;20494;-87
2023/10/26 22:52:11;;;;;;;1.42;1.30;;;17.80;48.70;;;;;;6106350;23;20353;-86
2023/10/26 22:54:40;;;;;;;1.30;1.20;;;17.90;48.70;;;;;;6081726;23;20178;-85
2023/10/26 22:57:06;;;;;;;1.60;1.40;;;17.80;48.70;;;;;;6107653;23;20147;-87
2023/10/26 22:59:38;;;;;;;1.52;1.30;;;17.90;48.80;;;;;;6106971;23;20159;-85
2023/10/26 23:02:04;;;;;;;1.50;1.35;;;17.90;48.80;;;;;;6106474;23;20152;-86
2023/10/26 23:04:30;;;;;;;1.25;1.13;;;17.80;48.80;;;;;;6082873;23;20193;-85
2023/10/26 23:07:02;;;;;;;1.50;1.38;;;17.80;48.90;;;;;;6140900;23;20146;-86
2023/10/26 23:09:28;;;;;;;2.20;1.20;;;17.80;48.90;;;;;;6116789;23;20153;-85
2023/10/26 23:11:56;;;;;;;1.30;1.20;;;17.80;49.00;;;;;;6166343;23;20138;-85
2023/10/26 23:14:29;;;;;;;1.40;1.20;;;17.80;49.00;;;;;;6140370;23;20154;-87
2023/10/26 23:17:02;;;;;;;2.05;1.48;;;17.90;49.00;;;;;;6116788;23;20189;-85
2023/10/26 23:19:30;;;;;;;1.35;1.25;;;17.80;49.10;;;;;;6142563;23;20146;-86
2023/10/26 23:21:57;;;;;;;2.05;1.35;;;17.80;49.10;;;;;;6142986;23;20142;-86
2023/10/26 23:24:26;;;;;;;1.38;1.27;;;17.80;49.10;;;;;;6143349;23;20149;-85
2023/10/26 23:26:54;;;;;;;1.77;1.42;;;17.80;49.10;;;;;;6143910;23;20248;-86
2023/10/26 23:29:22;;;;;;;1.60;1.27;;;17.70;49.10;;;;;;6138127;23;20186;-86
2023/10/26 23:31:47;;;;;;;1.50;1.10;;;17.80;49.20;;;;;;6137921;23;20173;-85
2023/10/26 23:34:14;;;;;;;1.15;1.00;;;17.80;49.30;;;;;;6187788;23;20139;-85
2023/10/26 23:36:43;;;;;;;1.48;1.10;;;17.80;49.30;;;;;;6162517;23;20190;-86
2023/10/26 23:39:11;;;;;;;1.30;1.20;;;17.80;49.30;;;;;;6137272;23;20186;-87
2023/10/26 23:41:36;;;;;;;1.75;1.52;;;17.80;49.30;;;;;;6188283;23;20131;-87
2023/10/26 23:44:03;;;;;;;2.10;1.33;;;17.80;49.30;;;;;;6138034;23;20463;-85
2023/10/26 23:46:33;;;;;;;1.30;1.20;;;17.80;49.30;;;;;;6138628;23;20158;-86
2023/10/26 23:49:01;;;;;;;1.23;1.10;;;17.80;49.30;;;;;;6102303;23;20152;-87
2023/10/26 23:51:27;;;;;;;2.25;1.13;;;17.80;49.30;;;;;;6102954;23;20215;-86
2023/10/26 23:53:53;;;;;;;1.40;1.30;;;17.80;49.40;;;;;;6126132;23;20148;-85
2023/10/26 23:56:19;;;;;;;1.10;1.05;;;17.70;49.40;;;;;;6102834;23;20184;-85
2023/10/26 23:58:50;;;;;;;1.33;1.23;;;17.70;49.40;;;;;;6127941;23;20284;-85
